createdAt,value
2023-05-07T00:00:53.678Z,16.35
2023-05-07T00:01:55.195Z,16.27
2023-05-07T00:02:56.824Z,16.88
2023-05-07T00:03:58.775Z,16.23
2023-05-07T00:05:00.504Z,16.30
2023-05-07T00:06:03.262Z,15.82
2023-05-07T00:07:07.241Z,16.70
2023-05-07T00:08:08.840Z,15.13
2023-05-07T00:09:10.864Z,16.67
2023-05-07T00:10:14.260Z,16.42
2023-05-07T00:11:16.954Z,17.35
2023-05-07T00:12:18.522Z,16.52
2023-05-07T00:13:26.590Z,16.45
2023-05-07T00:14:29.038Z,16.70
2023-05-07T00:15:30.631Z,16.52
2023-05-07T00:16:35.923Z,15.20
2023-05-07T00:17:38.139Z,15.68
2023-05-07T00:18:40.135Z,16.05
2023-05-07T00:19:42.440Z,15.82
2023-05-07T00:20:46.486Z,14.93
2023-05-07T00:21:48.079Z,15.60
2023-05-07T00:22:49.614Z,14.65
2023-05-07T00:23:51.149Z,16.90
2023-05-07T00:24:52.669Z,16.83
2023-05-07T00:25:54.247Z,15.85
2023-05-07T00:26:55.817Z,16.70
2023-05-07T00:27:58.677Z,15.30
2023-05-07T00:29:00.266Z,14.98
2023-05-07T00:30:05.733Z,16.88
2023-05-07T00:31:07.293Z,15.60
2023-05-07T00:32:11.682Z,15.63
2023-05-07T00:33:13.357Z,16.00
2023-05-07T00:34:14.989Z,15.75
2023-05-07T00:35:16.588Z,16.38
2023-05-07T00:36:18.207Z,16.80
2023-05-07T00:37:19.775Z,16.88
2023-05-07T00:38:21.927Z,16.20
2023-05-07T00:39:26.853Z,16.13
2023-05-07T00:40:28.458Z,15.38
2023-05-07T00:41:31.716Z,15.88
2023-05-07T00:42:33.916Z,16.95
2023-05-07T00:43:35.455Z,16.05
2023-05-07T00:44:37.110Z,15.90
2023-05-07T00:45:38.978Z,16.65
2023-05-07T00:46:40.999Z,14.93
2023-05-07T00:47:43.165Z,16.13
2023-05-07T00:48:44.771Z,16.00
2023-05-07T00:49:46.699Z,15.82
2023-05-07T00:50:49.319Z,16.67
2023-05-07T00:51:50.997Z,15.35
2023-05-07T00:52:52.686Z,16.27
2023-05-07T00:53:54.993Z,16.02
2023-05-07T00:54:56.805Z,16.40
2023-05-07T00:55:58.459Z,16.27
2023-05-07T00:57:02.455Z,15.55
2023-05-07T00:58:04.078Z,15.63
2023-05-07T00:59:06.396Z,16.65
2023-05-07T01:00:14.703Z,16.38
2023-05-07T01:01:17.790Z,14.75
2023-05-07T01:02:19.534Z,16.08
2023-05-07T01:03:21.857Z,16.70
2023-05-07T01:04:23.960Z,15.77
2023-05-07T01:05:27.849Z,15.13
2023-05-07T01:06:34.269Z,14.73
2023-05-07T01:07:37.937Z,16.25
2023-05-07T01:08:41.060Z,15.88
2023-05-07T01:09:42.702Z,15.57
2023-05-07T01:10:45.474Z,15.80
2023-05-07T01:11:47.896Z,15.75
2023-05-07T01:12:52.209Z,14.98
2023-05-07T01:13:54.151Z,16.08
2023-05-07T01:14:55.995Z,17.10
2023-05-07T01:15:57.624Z,14.88
2023-05-07T01:17:02.127Z,15.70
2023-05-07T01:18:03.981Z,15.52
2023-05-07T01:19:05.883Z,14.52
2023-05-07T01:20:08.636Z,15.57
2023-05-07T01:21:11.966Z,15.88
2023-05-07T01:22:17.478Z,15.02
2023-05-07T01:23:19.651Z,16.50
2023-05-07T01:24:23.896Z,15.57
2023-05-07T01:25:26.006Z,16.27
2023-05-07T01:26:27.927Z,16.02
2023-05-07T01:27:29.930Z,16.20
2023-05-07T01:28:31.650Z,16.25
2023-05-07T01:29:33.177Z,15.05
2023-05-07T01:30:35.733Z,16.55
2023-05-07T01:31:37.682Z,15.88
2023-05-07T01:32:43.982Z,16.55
2023-05-07T01:33:46.189Z,14.90
2023-05-07T01:34:49.342Z,15.00
2023-05-07T01:35:54.742Z,16.35
2023-05-07T01:36:59.112Z,15.70
2023-05-07T01:38:04.338Z,15.88
2023-05-07T01:39:07.532Z,15.45
2023-05-07T01:40:10.768Z,16.15
2023-05-07T01:41:13.450Z,18.25
2023-05-07T01:42:15.117Z,16.73
2023-05-07T01:43:17.004Z,16.25
2023-05-07T01:44:19.489Z,16.98
2023-05-07T01:45:21.398Z,16.10
2023-05-07T01:46:22.977Z,16.00
2023-05-07T01:47:25.137Z,15.65
2023-05-07T01:48:27.148Z,14.68
2023-05-07T01:49:29.037Z,16.25
2023-05-07T01:50:31.818Z,15.13
2023-05-07T01:51:34.097Z,16.10
2023-05-07T01:52:35.801Z,15.80
2023-05-07T01:53:37.890Z,15.68
2023-05-07T01:54:39.536Z,17.10
2023-05-07T01:55:41.223Z,16.15
2023-05-07T01:56:42.765Z,16.27
2023-05-07T01:57:44.358Z,16.67
2023-05-07T01:58:47.342Z,15.40
2023-05-07T01:59:51.827Z,16.50
2023-05-07T02:00:53.945Z,16.88
2023-05-07T02:01:55.693Z,16.35
2023-05-07T02:02:58.186Z,15.38
2023-05-07T02:04:00.017Z,16.35
2023-05-07T02:05:02.665Z,16.90
2023-05-07T02:06:06.185Z,16.50
2023-05-07T02:07:07.798Z,17.85
2023-05-07T02:08:09.373Z,16.55
2023-05-07T02:09:13.861Z,15.77
2023-05-07T02:10:16.633Z,15.88
2023-05-07T02:11:19.441Z,15.95
2023-05-07T02:12:21.039Z,16.17
2023-05-07T02:13:25.543Z,15.60
2023-05-07T02:14:28.197Z,16.33
2023-05-07T02:15:32.335Z,15.57
2023-05-07T02:16:33.926Z,15.63
2023-05-07T02:17:37.797Z,16.15
2023-05-07T02:18:39.438Z,15.40
2023-05-07T02:19:40.979Z,15.48
2023-05-07T02:20:43.029Z,16.55
2023-05-07T02:21:44.664Z,15.52
2023-05-07T02:22:46.171Z,17.15
2023-05-07T02:23:49.292Z,16.38
2023-05-07T02:24:50.810Z,15.98
2023-05-07T02:25:52.418Z,16.95
2023-05-07T02:26:53.981Z,16.35
2023-05-07T02:27:55.537Z,17.23
2023-05-07T02:28:57.987Z,17.73
2023-05-07T02:30:01.831Z,16.95
2023-05-07T02:31:04.154Z,16.35
2023-05-07T02:32:06.062Z,17.48
2023-05-07T02:33:09.499Z,15.73
2023-05-07T02:34:12.501Z,18.08
2023-05-07T02:35:14.973Z,15.77
2023-05-07T02:36:16.581Z,16.85
2023-05-07T02:37:18.097Z,15.57
2023-05-07T02:38:19.647Z,15.23
2023-05-07T02:39:21.153Z,15.18
2023-05-07T02:40:23.964Z,15.82
2023-05-07T02:41:25.541Z,16.45
2023-05-07T02:42:27.959Z,15.82
2023-05-07T02:43:30.168Z,15.93
2023-05-07T02:44:32.584Z,16.00
2023-05-07T02:45:34.348Z,15.20
2023-05-07T02:46:36.002Z,15.00
2023-05-07T02:47:37.551Z,15.23
2023-05-07T02:48:41.406Z,15.52
2023-05-07T02:49:43.662Z,15.52
2023-05-07T02:50:45.225Z,15.50
2023-05-07T02:51:46.990Z,16.80
2023-05-07T02:52:49.257Z,16.27
2023-05-07T02:53:50.977Z,16.40
2023-05-07T02:54:52.527Z,15.82
2023-05-07T02:55:58.458Z,16.20
2023-05-07T02:57:01.870Z,16.08
2023-05-07T02:58:04.024Z,16.42
2023-05-07T02:59:05.649Z,16.73
2023-05-07T03:00:18.957Z,15.55
2023-05-07T03:01:22.038Z,16.35
2023-05-07T03:02:24.019Z,16.23
2023-05-07T03:03:26.795Z,16.83
2023-05-07T03:04:28.385Z,16.52
2023-05-07T03:05:30.008Z,16.00
2023-05-07T03:06:31.608Z,15.40
2023-05-07T03:07:33.464Z,15.73
2023-05-07T03:08:35.057Z,15.32
2023-05-07T03:09:38.171Z,15.98
2023-05-07T03:10:43.690Z,16.77
2023-05-07T03:11:46.068Z,15.18
2023-05-07T03:12:48.072Z,14.90
2023-05-07T03:13:53.354Z,15.23
2023-05-07T03:14:58.952Z,15.98
2023-05-07T03:16:00.549Z,15.38
2023-05-07T03:17:02.970Z,16.40
2023-05-07T03:18:07.161Z,15.48
2023-05-07T03:19:10.127Z,15.85
2023-05-07T03:20:13.231Z,15.70
2023-05-07T03:21:16.304Z,15.25
2023-05-07T03:22:20.236Z,16.27
2023-05-07T03:23:25.082Z,15.27
2023-05-07T03:24:26.938Z,15.88
2023-05-07T03:25:29.408Z,16.05
2023-05-07T03:26:31.015Z,16.73
2023-05-07T03:27:35.731Z,15.77
2023-05-07T03:28:37.870Z,15.82
2023-05-07T03:29:41.056Z,15.90
2023-05-07T03:30:42.642Z,16.15
2023-05-07T03:31:44.277Z,15.73
2023-05-07T03:32:45.915Z,15.90
2023-05-07T03:33:54.753Z,15.68
2023-05-07T03:34:56.985Z,14.85
2023-05-07T03:35:58.608Z,16.35
2023-05-07T03:37:00.257Z,15.48
2023-05-07T03:38:02.187Z,15.77
2023-05-07T03:39:04.070Z,14.85
2023-05-07T03:40:06.622Z,14.10
2023-05-07T03:41:08.202Z,14.45
2023-05-07T03:42:09.887Z,15.30
2023-05-07T03:43:11.557Z,15.02
2023-05-07T03:44:14.592Z,14.55
2023-05-07T03:45:16.587Z,14.75
2023-05-07T03:46:18.178Z,15.07
2023-05-07T03:47:19.748Z,15.35
2023-05-07T03:48:21.422Z,14.70
2023-05-07T03:49:23.008Z,14.63
2023-05-07T03:50:25.946Z,14.80
2023-05-07T03:51:28.047Z,14.20
2023-05-07T03:52:29.565Z,14.20
2023-05-07T03:53:31.222Z,14.05
2023-05-07T03:54:32.877Z,14.98
2023-05-07T03:55:34.449Z,15.73
2023-05-07T03:56:36.048Z,15.20
2023-05-07T03:57:37.650Z,14.65
2023-05-07T03:58:39.996Z,16.08
2023-05-07T03:59:41.779Z,15.07
2023-05-07T04:00:43.570Z,14.73
2023-05-07T04:01:45.110Z,15.38
2023-05-07T04:02:46.849Z,14.20
2023-05-07T04:03:49.117Z,13.80
2023-05-07T04:04:51.133Z,14.38
2023-05-07T04:05:52.996Z,13.52
2023-05-07T04:06:54.587Z,14.35
2023-05-07T04:07:57.265Z,13.40
2023-05-07T04:09:01.464Z,14.55
2023-05-07T04:10:03.477Z,13.70
2023-05-07T04:11:04.996Z,14.45
2023-05-07T04:12:06.729Z,13.65
2023-05-07T04:13:09.051Z,15.10
2023-05-07T04:14:10.806Z,13.85
2023-05-07T04:15:12.390Z,13.85
2023-05-07T04:16:14.077Z,14.25
2023-05-07T04:17:18.184Z,13.15
2023-05-07T04:18:19.732Z,12.65
2023-05-07T04:19:21.266Z,13.60
2023-05-07T04:20:22.867Z,12.57
2023-05-07T04:21:24.421Z,13.23
2023-05-07T04:22:26.010Z,14.50
2023-05-07T04:23:27.579Z,13.02
2023-05-07T04:24:32.098Z,13.15
2023-05-07T04:25:34.272Z,12.52
2023-05-07T04:26:35.888Z,13.10
2023-05-07T04:27:38.832Z,13.32
2023-05-07T04:28:40.725Z,12.98
2023-05-07T04:29:43.474Z,13.20
2023-05-07T04:30:45.045Z,12.38
2023-05-07T04:31:47.100Z,12.32
2023-05-07T04:32:49.405Z,12.48
2023-05-07T04:33:51.800Z,12.20
2023-05-07T04:34:53.397Z,13.35
2023-05-07T04:35:55.069Z,13.65
2023-05-07T04:36:59.830Z,12.82
2023-05-07T04:38:01.475Z,13.55
2023-05-07T04:39:03.694Z,12.70
2023-05-07T04:40:05.590Z,11.68
2023-05-07T04:41:07.734Z,12.07
2023-05-07T04:42:10.167Z,11.05
2023-05-07T04:43:11.957Z,12.00
2023-05-07T04:44:14.029Z,12.32
2023-05-07T04:45:16.425Z,12.02
2023-05-07T04:46:18.150Z,12.68
2023-05-07T04:47:19.750Z,12.00
2023-05-07T04:48:21.670Z,13.20
2023-05-07T04:49:23.254Z,13.48
2023-05-07T04:50:26.003Z,12.65
2023-05-07T04:51:27.665Z,11.90
2023-05-07T04:52:29.267Z,11.98
2023-05-07T04:53:30.935Z,12.30
2023-05-07T04:54:32.527Z,11.15
2023-05-07T04:55:34.198Z,12.07
2023-05-07T04:56:39.252Z,12.02
2023-05-07T04:57:41.756Z,11.95
2023-05-07T04:58:43.360Z,11.77
2023-05-07T04:59:45.441Z,10.85
2023-05-07T05:00:47.791Z,11.38
2023-05-07T05:01:49.436Z,11.13
2023-05-07T05:02:51.198Z,12.07
2023-05-07T05:03:52.838Z,12.18
2023-05-07T05:04:54.471Z,11.05
2023-05-07T05:05:56.100Z,11.05
2023-05-07T05:06:57.776Z,12.25
2023-05-07T05:08:00.093Z,11.05
2023-05-07T05:09:01.754Z,11.70
2023-05-07T05:10:04.291Z,11.43
2023-05-07T05:11:06.590Z,10.57
2023-05-07T05:12:08.679Z,11.13
2023-05-07T05:13:10.871Z,11.13
2023-05-07T05:14:13.154Z,11.73
2023-05-07T05:15:14.778Z,10.18
2023-05-07T05:16:17.001Z,10.65
2023-05-07T05:17:18.649Z,10.57
2023-05-07T05:18:20.412Z,10.68
2023-05-07T05:19:22.167Z,9.52
2023-05-07T05:20:23.732Z,10.30
2023-05-07T05:21:25.388Z,10.57
2023-05-07T05:22:27.053Z,10.40
2023-05-07T05:23:28.659Z,10.25
2023-05-07T05:24:31.673Z,9.80
2023-05-07T05:25:33.280Z,10.02
2023-05-07T05:26:35.503Z,9.00
2023-05-07T05:27:37.179Z,9.32
2023-05-07T05:28:40.369Z,9.88
2023-05-07T05:29:42.172Z,9.60
2023-05-07T05:30:43.817Z,10.05
2023-05-07T05:31:45.442Z,9.73
2023-05-07T05:32:47.189Z,10.07
2023-05-07T05:33:48.887Z,10.77
2023-05-07T05:34:50.669Z,9.82
2023-05-07T05:35:52.310Z,9.73
2023-05-07T05:36:54.053Z,8.82
2023-05-07T05:37:56.204Z,9.32
2023-05-07T05:38:57.927Z,9.73
2023-05-07T05:40:02.469Z,8.57
2023-05-07T05:41:04.103Z,9.40
2023-05-07T05:42:05.937Z,9.50
2023-05-07T05:43:07.630Z,9.95
2023-05-07T05:44:09.218Z,9.55
2023-05-07T05:45:10.924Z,8.90
2023-05-07T05:46:13.250Z,9.00
2023-05-07T05:47:15.401Z,8.57
2023-05-07T05:48:17.077Z,9.65
2023-05-07T05:49:18.764Z,9.02
2023-05-07T05:50:20.498Z,9.00
2023-05-07T05:51:22.466Z,8.95
2023-05-07T05:52:25.435Z,8.95
2023-05-07T05:53:27.043Z,9.40
2023-05-07T05:54:29.097Z,9.32
2023-05-07T05:55:31.121Z,9.15
2023-05-07T05:56:32.763Z,8.95
2023-05-07T05:57:34.334Z,9.40
2023-05-07T05:58:36.095Z,9.90
2023-05-07T05:59:37.784Z,9.27
2023-05-07T06:00:39.583Z,9.15
2023-05-07T06:01:41.345Z,8.98
2023-05-07T06:02:44.362Z,8.07
2023-05-07T06:03:46.101Z,8.15
2023-05-07T06:04:48.232Z,8.73
2023-05-07T06:05:52.098Z,9.18
2023-05-07T06:06:54.221Z,9.98
2023-05-07T06:07:56.197Z,8.38
2023-05-07T06:08:58.500Z,8.65
2023-05-07T06:10:02.434Z,8.63
2023-05-07T06:11:04.402Z,8.38
2023-05-07T06:12:07.458Z,8.60
2023-05-07T06:13:11.709Z,8.73
2023-05-07T06:14:14.541Z,8.45
2023-05-07T06:15:16.275Z,8.98
2023-05-07T06:16:17.929Z,8.98
2023-05-07T06:17:21.626Z,9.00
2023-05-07T06:18:24.154Z,8.23
2023-05-07T06:19:27.774Z,8.75
2023-05-07T06:20:30.508Z,9.05
2023-05-07T06:21:32.558Z,8.45
2023-05-07T06:22:35.524Z,8.35
2023-05-07T06:23:37.155Z,8.38
2023-05-07T06:24:41.802Z,8.18
2023-05-07T06:25:50.279Z,8.27
2023-05-07T06:26:51.876Z,8.75
2023-05-07T06:27:56.545Z,8.40
2023-05-07T06:28:59.184Z,8.93
2023-05-07T06:30:00.837Z,9.20
2023-05-07T06:31:12.203Z,7.95
2023-05-07T06:32:14.785Z,8.88
2023-05-07T06:33:16.861Z,8.55
2023-05-07T06:34:18.464Z,7.68
2023-05-07T06:35:20.201Z,8.02
2023-05-07T06:36:21.878Z,8.98
2023-05-07T06:37:23.556Z,7.65
2023-05-07T06:38:27.051Z,8.90
2023-05-07T06:39:28.713Z,8.30
2023-05-07T06:40:30.478Z,9.25
2023-05-07T06:41:32.146Z,9.05
2023-05-07T06:42:33.786Z,8.95
2023-05-07T06:43:37.380Z,9.48
2023-05-07T06:44:38.946Z,8.45
2023-05-07T06:45:42.156Z,8.85
2023-05-07T06:46:43.859Z,7.90
2023-05-07T06:47:46.362Z,9.30
2023-05-07T06:48:48.162Z,8.20
2023-05-07T06:49:49.773Z,9.23
2023-05-07T06:50:52.240Z,8.15
2023-05-07T06:51:53.859Z,8.38
2023-05-07T06:52:56.135Z,9.18
2023-05-07T06:53:57.728Z,8.57
2023-05-07T06:54:59.305Z,8.20
2023-05-07T06:56:01.081Z,8.90
2023-05-07T06:57:03.158Z,8.25
2023-05-07T06:58:04.986Z,8.82
2023-05-07T06:59:08.084Z,8.68
2023-05-07T07:00:11.506Z,8.93
2023-05-07T07:01:14.231Z,8.25
2023-05-07T07:02:18.209Z,8.13
2023-05-07T07:03:20.107Z,8.68
2023-05-07T07:04:24.226Z,10.05
2023-05-07T07:05:25.877Z,9.30
2023-05-07T07:06:28.802Z,9.60
2023-05-07T07:07:30.489Z,9.73
2023-05-07T07:08:32.195Z,10.52
2023-05-07T07:09:34.231Z,10.27
2023-05-07T07:10:36.309Z,10.15
2023-05-07T07:11:39.404Z,10.35
2023-05-07T07:12:41.138Z,10.32
2023-05-07T07:13:43.941Z,10.30
2023-05-07T07:14:45.597Z,11.30
2023-05-07T07:15:48.338Z,11.43
2023-05-07T07:16:50.045Z,11.07
2023-05-07T07:17:51.984Z,11.57
2023-05-07T07:18:54.188Z,11.20
2023-05-07T07:19:55.844Z,10.80
2023-05-07T07:20:57.458Z,11.15
2023-05-07T07:21:59.088Z,10.68
2023-05-07T07:23:01.282Z,11.23
2023-05-07T07:24:03.394Z,10.88
2023-05-07T07:25:05.962Z,12.13
2023-05-07T07:26:10.236Z,11.65
2023-05-07T07:27:11.862Z,10.60
2023-05-07T07:28:13.512Z,11.10
2023-05-07T07:29:17.710Z,11.45
2023-05-07T07:30:19.299Z,11.95
2023-05-07T07:31:20.909Z,12.02
2023-05-07T07:32:22.547Z,13.18
2023-05-07T07:33:24.308Z,12.82
2023-05-07T07:34:26.132Z,11.98
2023-05-07T07:35:28.206Z,11.93
2023-05-07T07:36:42.557Z,13.38
2023-05-07T07:37:48.641Z,13.20
2023-05-07T07:38:50.269Z,11.02
2023-05-07T07:39:51.984Z,12.57
2023-05-07T07:40:53.531Z,11.43
2023-05-07T07:41:55.091Z,12.95
2023-05-07T07:42:57.780Z,11.90
2023-05-07T07:44:00.160Z,11.18
2023-05-07T07:45:01.803Z,12.70
2023-05-07T07:46:03.424Z,12.05
2023-05-07T07:47:05.041Z,10.57
2023-05-07T07:48:07.390Z,11.80
2023-05-07T07:49:10.287Z,12.02
2023-05-07T07:50:14.868Z,12.60
2023-05-07T07:51:22.089Z,13.60
2023-05-07T07:52:23.701Z,12.75
2023-05-07T07:53:25.669Z,11.93
2023-05-07T07:54:28.166Z,12.43
2023-05-07T07:55:30.274Z,12.18
2023-05-07T07:56:33.271Z,11.38
2023-05-07T07:57:34.872Z,11.55
2023-05-07T07:58:37.934Z,11.60
2023-05-07T07:59:40.731Z,11.45
2023-05-07T08:00:43.246Z,12.13
2023-05-07T08:01:46.537Z,11.80
2023-05-07T08:02:48.466Z,11.88
2023-05-07T08:03:50.312Z,11.55
2023-05-07T08:04:51.982Z,11.13
2023-05-07T08:05:53.570Z,11.27
2023-05-07T08:06:58.768Z,11.93
2023-05-07T08:08:01.319Z,11.80
2023-05-07T08:09:03.744Z,10.93
2023-05-07T08:10:05.366Z,12.07
2023-05-07T08:11:06.977Z,11.48
2023-05-07T08:12:10.189Z,10.90
2023-05-07T08:13:12.331Z,12.27
2023-05-07T08:14:14.798Z,11.10
2023-05-07T08:15:16.833Z,11.38
2023-05-07T08:16:18.486Z,11.48
2023-05-07T08:17:20.312Z,11.32
2023-05-07T08:18:22.274Z,11.85
2023-05-07T08:19:24.136Z,11.82
2023-05-07T08:20:26.412Z,12.27
2023-05-07T08:21:27.948Z,11.05
2023-05-07T08:22:30.168Z,10.68
2023-05-07T08:23:32.044Z,11.05
2023-05-07T08:24:34.217Z,11.27
2023-05-07T08:25:36.023Z,11.18
2023-05-07T08:26:40.143Z,11.52
2023-05-07T08:27:43.004Z,10.45
2023-05-07T08:28:45.246Z,10.68
2023-05-07T08:29:48.722Z,10.55
2023-05-07T08:30:50.387Z,11.13
2023-05-07T08:31:51.994Z,10.68
2023-05-07T08:32:53.881Z,11.55
2023-05-07T08:33:55.422Z,10.43
2023-05-07T08:34:57.180Z,11.35
2023-05-07T08:35:59.418Z,10.80
2023-05-07T08:37:04.598Z,10.35
2023-05-07T08:38:07.873Z,10.85
2023-05-07T08:39:10.167Z,10.60
2023-05-07T08:40:14.531Z,12.07
2023-05-07T08:41:16.559Z,10.20
2023-05-07T08:42:18.153Z,10.68
2023-05-07T08:43:20.762Z,10.48
2023-05-07T08:44:23.640Z,11.52
2023-05-07T08:45:25.508Z,11.30
2023-05-07T08:46:31.329Z,11.38
2023-05-07T08:47:38.960Z,11.00
2023-05-07T08:48:40.760Z,11.30
2023-05-07T08:49:42.704Z,10.82
2023-05-07T08:50:44.348Z,10.93
2023-05-07T08:51:46.177Z,10.43
2023-05-07T08:52:48.598Z,11.38
2023-05-07T08:53:53.680Z,11.57
2023-05-07T08:54:55.304Z,11.27
2023-05-07T08:55:57.238Z,11.75
2023-05-07T08:57:00.593Z,11.07
2023-05-07T08:58:02.619Z,11.10
2023-05-07T08:59:05.488Z,11.38
2023-05-07T09:00:09.233Z,10.63
2023-05-07T09:01:14.005Z,11.75
2023-05-07T09:02:17.409Z,11.90
2023-05-07T09:03:20.739Z,10.73
2023-05-07T09:04:22.428Z,11.88
2023-05-07T09:05:24.347Z,11.50
2023-05-07T09:06:26.208Z,10.98
2023-05-07T09:07:29.038Z,12.32
2023-05-07T09:08:30.798Z,11.27
2023-05-07T09:09:33.900Z,10.77
2023-05-07T09:10:35.616Z,12.82
2023-05-07T09:11:38.748Z,11.85
2023-05-07T09:12:41.547Z,11.15
2023-05-07T09:13:43.697Z,11.38
2023-05-07T09:14:45.399Z,11.38
2023-05-07T09:15:47.186Z,9.95
2023-05-07T09:16:49.247Z,10.43
2023-05-07T09:17:50.826Z,10.80
2023-05-07T09:18:56.840Z,10.90
2023-05-07T09:20:04.224Z,11.55
2023-05-07T09:21:08.027Z,11.60
2023-05-07T09:22:09.741Z,11.35
2023-05-07T09:23:11.290Z,10.95
2023-05-07T09:24:13.022Z,11.30
2023-05-07T09:25:14.866Z,11.82
2023-05-07T09:26:16.526Z,10.32
2023-05-07T09:27:18.744Z,11.02
2023-05-07T09:28:20.566Z,11.02
2023-05-07T09:29:22.101Z,11.63
2023-05-07T09:30:23.696Z,10.48
2023-05-07T09:31:27.218Z,10.50
2023-05-07T09:32:28.961Z,10.55
2023-05-07T09:33:31.579Z,10.48
2023-05-07T09:34:33.517Z,10.85
2023-05-07T09:35:35.044Z,10.50
2023-05-07T09:36:37.262Z,10.60
2023-05-07T09:37:38.900Z,12.30
2023-05-07T09:38:40.502Z,10.38
2023-05-07T09:39:52.103Z,11.45
2023-05-07T09:41:13.052Z,10.75
2023-05-07T09:42:16.215Z,11.30
2023-05-07T09:43:17.878Z,10.50
2023-05-07T09:44:19.788Z,10.63
2023-05-07T09:45:26.302Z,11.13
2023-05-07T09:46:31.644Z,11.40
2023-05-07T09:47:34.021Z,10.65
2023-05-07T09:48:41.024Z,16.23
2023-05-07T09:49:44.318Z,11.57
2023-05-07T09:50:49.470Z,10.45
2023-05-07T09:51:52.022Z,11.70
2023-05-07T09:52:53.814Z,12.35
2023-05-07T09:53:57.237Z,10.77
2023-05-07T09:55:00.337Z,10.27
2023-05-07T09:56:04.481Z,9.68
2023-05-07T09:57:08.082Z,10.85
2023-05-07T09:58:10.420Z,10.02
2023-05-07T09:59:14.520Z,10.35
2023-05-07T10:00:27.309Z,9.30
2023-05-07T10:01:29.211Z,9.95
2023-05-07T10:02:31.547Z,10.40
2023-05-07T10:03:35.683Z,9.27
2023-05-07T10:04:38.762Z,10.70
2023-05-07T10:05:40.579Z,10.00
2023-05-07T10:06:42.812Z,9.18
2023-05-07T10:07:57.841Z,9.95
2023-05-07T10:09:00.003Z,9.45
2023-05-07T10:10:02.840Z,9.88
2023-05-07T10:11:05.153Z,9.68
2023-05-07T10:12:07.597Z,9.45
2023-05-07T10:13:12.019Z,10.15
2023-05-07T10:14:14.401Z,9.70
2023-05-07T10:15:15.960Z,9.55
2023-05-07T10:16:18.246Z,10.00
2023-05-07T10:17:20.332Z,9.65
2023-05-07T10:18:24.805Z,10.00
2023-05-07T10:19:27.444Z,9.65
2023-05-07T10:20:29.062Z,9.57
2023-05-07T10:21:32.704Z,9.75
2023-05-07T10:22:39.624Z,9.40
2023-05-07T10:23:41.646Z,9.73
2023-05-07T10:24:45.951Z,10.07
2023-05-07T10:25:47.933Z,9.82
2023-05-07T10:26:51.140Z,9.52
2023-05-07T10:27:54.112Z,10.13
2023-05-07T10:28:58.211Z,9.65
2023-05-07T10:30:10.409Z,9.88
2023-05-07T10:31:37.736Z,9.40
2023-05-07T10:32:39.454Z,9.50
2023-05-07T10:33:43.631Z,8.55
2023-05-07T10:34:46.561Z,8.55
2023-05-07T10:35:48.722Z,9.40
2023-05-07T10:36:51.009Z,9.10
2023-05-07T10:37:53.968Z,8.85
2023-05-07T10:38:56.218Z,9.68
2023-05-07T10:39:58.779Z,8.70
2023-05-07T10:41:00.525Z,9.00
2023-05-07T10:42:14.767Z,8.98
2023-05-07T10:43:16.342Z,9.13
2023-05-07T10:44:30.476Z,8.65
2023-05-07T10:45:32.658Z,8.10
2023-05-07T10:46:36.671Z,8.05
2023-05-07T10:47:59.286Z,8.35
2023-05-07T10:49:09.705Z,8.18
2023-05-07T10:50:11.570Z,7.85
2023-05-07T10:51:20.103Z,8.48
2023-05-07T10:52:22.763Z,8.40
2023-05-07T10:53:27.121Z,8.20
2023-05-07T10:54:28.713Z,7.95
2023-05-07T10:55:31.504Z,7.88
2023-05-07T10:56:33.045Z,8.40
2023-05-07T10:57:53.503Z,8.20
2023-05-07T10:58:55.109Z,8.95
2023-05-07T10:59:59.293Z,8.13
2023-05-07T11:01:02.206Z,7.78
2023-05-07T11:02:22.260Z,8.05
2023-05-07T11:03:23.842Z,7.90
2023-05-07T11:04:27.764Z,8.55
2023-05-07T11:05:30.889Z,8.23
2023-05-07T11:06:35.682Z,7.88
2023-05-07T11:07:37.269Z,7.57
2023-05-07T11:08:54.116Z,8.18
2023-05-07T11:09:57.015Z,7.30
2023-05-07T11:10:59.642Z,8.02
2023-05-07T11:12:01.308Z,7.32
2023-05-07T11:13:03.112Z,8.10
2023-05-07T11:14:04.760Z,8.18
2023-05-07T11:15:07.170Z,7.15
2023-05-07T11:16:21.613Z,8.30
2023-05-07T11:17:23.234Z,7.47
2023-05-07T11:18:24.839Z,7.47
2023-05-07T11:19:46.350Z,6.95
2023-05-07T11:20:55.189Z,7.40
2023-05-07T11:21:56.749Z,7.15
2023-05-07T11:22:59.837Z,7.10
2023-05-07T11:24:02.208Z,6.93
2023-05-07T11:25:04.527Z,6.95
2023-05-07T11:26:06.881Z,6.80
2023-05-07T11:28:11.619Z,6.40
2023-05-07T11:29:18.290Z,6.45
2023-05-07T11:30:22.021Z,8.02
2023-05-07T11:31:28.049Z,7.38
2023-05-07T11:32:31.145Z,6.93
2023-05-07T11:33:33.482Z,6.55
2023-05-07T11:34:35.073Z,6.93
2023-05-07T11:35:37.366Z,6.50
2023-05-07T11:36:44.015Z,6.72
2023-05-07T11:37:48.214Z,7.43
2023-05-07T11:38:52.708Z,6.85
2023-05-07T11:40:11.093Z,6.68
2023-05-07T11:41:12.930Z,6.38
2023-05-07T11:42:47.120Z,6.22
2023-05-07T11:43:56.233Z,6.95
2023-05-07T11:45:07.772Z,6.55
2023-05-07T11:46:12.970Z,5.80
2023-05-07T11:47:21.506Z,5.95
2023-05-07T11:48:29.871Z,6.82
2023-05-07T11:49:32.693Z,6.70
2023-05-07T11:50:35.436Z,6.35
2023-05-07T11:51:41.990Z,6.95
2023-05-07T11:52:51.976Z,6.97
2023-05-07T11:53:56.068Z,6.82
2023-05-07T11:55:01.242Z,6.55
2023-05-07T11:56:16.903Z,5.93
2023-05-07T11:57:20.544Z,6.50
2023-05-07T11:58:23.391Z,7.22
2023-05-07T11:59:25.256Z,7.03
2023-05-07T12:00:27.080Z,6.50
2023-05-07T12:01:29.073Z,6.80
2023-05-07T12:02:31.027Z,6.55
2023-05-07T12:03:36.236Z,7.03
2023-05-07T12:04:47.312Z,6.57
2023-05-07T12:05:52.302Z,6.70
2023-05-07T12:06:57.083Z,6.05
2023-05-07T12:07:58.891Z,7.13
2023-05-07T12:09:00.574Z,6.35
2023-05-07T12:10:05.871Z,6.75
2023-05-07T12:11:12.578Z,6.68
2023-05-07T12:12:16.720Z,7.07
2023-05-07T12:13:26.079Z,6.35
2023-05-07T12:14:31.352Z,6.57
2023-05-07T12:15:35.967Z,6.40
2023-05-07T12:16:37.656Z,6.85
2023-05-07T12:17:39.492Z,6.85
2023-05-07T12:18:41.249Z,6.70
2023-05-07T12:19:44.123Z,6.68
2023-05-07T12:20:46.436Z,6.45
2023-05-07T12:21:48.142Z,6.25
2023-05-07T12:22:51.330Z,6.32
2023-05-07T12:23:52.946Z,5.80
2023-05-07T12:24:58.913Z,6.10
2023-05-07T12:26:01.481Z,5.65
2023-05-07T12:27:03.045Z,5.95
2023-05-07T12:28:06.233Z,5.90
2023-05-07T12:29:08.286Z,6.13
2023-05-07T12:30:11.144Z,5.43
2023-05-07T12:31:14.957Z,6.38
2023-05-07T12:32:18.120Z,5.78
2023-05-07T12:33:22.188Z,5.78
2023-05-07T12:34:23.845Z,5.75
2023-05-07T12:35:44.438Z,5.50
2023-05-07T12:36:49.090Z,5.15
2023-05-07T12:37:56.107Z,4.97
2023-05-07T12:38:57.795Z,5.10
2023-05-07T12:40:25.552Z,5.43
2023-05-07T12:41:30.343Z,5.00
2023-05-07T12:42:34.124Z,5.80
2023-05-07T12:43:35.869Z,5.40
2023-05-07T12:44:37.688Z,5.60
2023-05-07T12:45:43.570Z,5.40
2023-05-07T12:46:45.184Z,5.60
2023-05-07T12:47:50.375Z,5.38
2023-05-07T12:48:53.447Z,5.82
2023-05-07T12:49:55.596Z,5.80
2023-05-07T12:50:57.946Z,5.47
2023-05-07T12:52:00.081Z,5.57
2023-05-07T12:53:07.813Z,4.70
2023-05-07T12:54:09.563Z,4.85
2023-05-07T12:55:14.672Z,5.40
2023-05-07T12:56:17.099Z,5.13
2023-05-07T12:57:20.664Z,5.40
2023-05-07T12:58:28.982Z,5.28
2023-05-07T12:59:34.377Z,4.75
2023-05-07T13:00:37.390Z,5.25
2023-05-07T13:01:38.972Z,5.70
2023-05-07T13:02:41.529Z,5.13
2023-05-07T13:03:50.878Z,5.78
2023-05-07T13:04:52.530Z,4.97
2023-05-07T13:05:58.702Z,5.30
2023-05-07T13:07:01.208Z,5.13
2023-05-07T13:08:02.892Z,4.53
2023-05-07T13:09:05.941Z,5.40
2023-05-07T13:10:07.879Z,4.78
2023-05-07T13:11:09.834Z,4.88
2023-05-07T13:12:11.637Z,5.35
2023-05-07T13:13:13.233Z,5.00
2023-05-07T13:14:14.813Z,4.85
2023-05-07T13:15:16.911Z,5.05
2023-05-07T13:16:22.175Z,5.63
2023-05-07T13:17:24.530Z,4.63
2023-05-07T13:18:27.477Z,4.57
2023-05-07T13:19:31.040Z,5.10
2023-05-07T13:20:33.169Z,4.93
2023-05-07T13:21:34.942Z,5.28
2023-05-07T13:22:36.909Z,5.32
2023-05-07T13:23:39.939Z,5.00
2023-05-07T13:24:42.937Z,5.70
2023-05-07T13:25:44.533Z,5.20
2023-05-07T13:26:46.376Z,6.28
2023-05-07T13:27:53.876Z,5.68
2023-05-07T13:29:01.558Z,6.57
2023-05-07T13:30:03.656Z,4.80
2023-05-07T13:31:06.338Z,4.85
2023-05-07T13:32:07.919Z,5.57
2023-05-07T13:33:09.831Z,5.40
2023-05-07T13:34:11.486Z,5.32
2023-05-07T13:35:13.255Z,4.95
2023-05-07T13:36:15.884Z,5.30
2023-05-07T13:37:17.455Z,5.20
2023-05-07T13:38:19.210Z,4.80
2023-05-07T13:39:21.223Z,5.22
2023-05-07T13:40:23.288Z,5.13
2023-05-07T13:41:24.901Z,4.68
2023-05-07T13:42:26.503Z,4.80
2023-05-07T13:43:28.105Z,4.88
2023-05-07T13:44:29.715Z,5.03